Darstellungsparameter: Aktuell verwendete Einstellungen:
Skalierung der Graphiken ... ?
xyx+y,   Skalierungsfaktor:      Skalierung: Modus: x, Faktor: 1
Darstellungszeitraum ... ?
Vom - - bis: - -   Zeitraum: 29.07.2018 - 29.07.2018
Min/Max/Avg-Anzeige ... ?
Zeige MMA aktuell
Zeige MMA Monat
Zeige MMA alles
Zeige --A aktuell
Zeige --A Monat
Zeige --A alles
Keine MMA-Anzeige
MMA:
Keine MMA-Graphiken
MMA-Basis: 29.07.2018 - 29.07.2018
Quicknavigation für Darstellung... ?
Tage:      1T, 2T, 3T, 5T -1T -2T -3T -5T +1T +2T +3T +5T
Wochen: 1W, 2W, 3W -1W -2W -3W +1W +2W +3W
Monate: 1M, 3M, 6M -1M -3M -6M +1M +3M +6M
Jahre:    1J, 3J, 5J, 10J -1J -3J -5J -10J +1J +3J +5J +10J
Nutze für die Darstellung ... ?
Originaldaten oder Mittelwerte auf ...
Stundenbasis Tagesbasis Wochenbasis
Monatsbasis Jahresbasis      Datenbasis: Original-Daten
Darstellen als:
Statistik (Auto) Statistik J:M      Darstellung:
Zur Graphik,    zurück zur Übersicht aller Sensoren.
 
Tabellarische Datenbersicht: ?
 
Sensor: Nr:Datum:Temp:Feuchte:Taupunkt:
Aussen-T/F 1 29-07-2018 00:00:00 19.8 C 84 % 17.02 C
2 29-07-2018 00:05:00 19.8 C 85 % 17.21 C
3 29-07-2018 00:10:00 19.7 C 85 % 17.11 C
4 29-07-2018 00:15:00 19.6 C 84 % 16.82 C
5 29-07-2018 00:20:00 19.4 C 85 % 16.81 C
6 29-07-2018 00:25:00 19.3 C 85 % 16.72 C
7 29-07-2018 00:30:00 19.3 C 85 % 16.72 C
8 29-07-2018 00:35:00 19.2 C 86 % 16.8 C
9 29-07-2018 00:40:00 19.2 C 87 % 16.98 C
10 29-07-2018 00:45:00 19.2 C 87 % 16.98 C
11 29-07-2018 00:50:00 19.1 C 87 % 16.89 C
12 29-07-2018 00:55:00 19.1 C 87 % 16.89 C
13 29-07-2018 01:00:00 19 C 87 % 16.79 C
14 29-07-2018 01:05:00 18.9 C 88 % 16.87 C
15 29-07-2018 01:10:00 18.8 C 88 % 16.77 C
16 29-07-2018 01:15:00 18.7 C 88 % 16.67 C
17 29-07-2018 01:20:00 18.7 C 88 % 16.67 C
18 29-07-2018 01:25:00 18.5 C 88 % 16.48 C
19 29-07-2018 01:30:00 18.4 C 88 % 16.38 C
20 29-07-2018 01:35:00 18.3 C 88 % 16.28 C
21 29-07-2018 01:40:00 18.2 C 88 % 16.18 C
22 29-07-2018 01:45:00 18.1 C 88 % 16.08 C
23 29-07-2018 01:50:00 18 C 88 % 15.98 C
24 29-07-2018 01:55:00 17.9 C 88 % 15.88 C
25 29-07-2018 02:00:00 17.9 C 88 % 15.88 C
Sensor: Nr:Datum:Temp:Feuchte:Taupunkt:
Aussen-T/F 26 29-07-2018 02:05:00 17.9 C 87 % 15.71 C
27 29-07-2018 02:10:00 17.9 C 88 % 15.88 C
28 29-07-2018 02:15:00 17.9 C 88 % 15.88 C
29 29-07-2018 02:20:00 17.8 C 87 % 15.61 C
30 29-07-2018 02:25:00 17.8 C 87 % 15.61 C
31 29-07-2018 02:30:00 17.7 C 88 % 15.69 C
32 29-07-2018 02:35:00 17.6 C 87 % 15.41 C
33 29-07-2018 02:40:00 17.5 C 87 % 15.31 C
34 29-07-2018 02:45:00 17.5 C 88 % 15.49 C
35 29-07-2018 02:50:00 17.4 C 88 % 15.39 C
36 29-07-2018 02:55:00 17.4 C 88 % 15.39 C
37 29-07-2018 03:00:00 17.3 C 88 % 15.29 C
38 29-07-2018 03:05:00 17.2 C 88 % 15.2 C
39 29-07-2018 03:10:00 17.2 C 89 % 15.37 C
40 29-07-2018 03:15:00 17.2 C 89 % 15.37 C
41 29-07-2018 03:20:00 17.1 C 88 % 15.1 C
42 29-07-2018 03:25:00 17 C 89 % 15.17 C
43 29-07-2018 03:30:00 17 C 89 % 15.17 C
44 29-07-2018 03:35:00 16.9 C 89 % 15.08 C
45 29-07-2018 03:40:00 16.9 C 89 % 15.08 C
46 29-07-2018 03:45:00 16.8 C 89 % 14.98 C
47 29-07-2018 03:50:00 16.7 C 88 % 14.7 C
48 29-07-2018 03:55:00 16.6 C 89 % 14.78 C
49 29-07-2018 04:00:00 16.5 C 88 % 14.51 C
50 29-07-2018 04:05:00 16.4 C 89 % 14.58 C
Sensor: Nr:Datum:Temp:Feuchte:Taupunkt:
Aussen-T/F 51 29-07-2018 04:10:00 16.4 C 89 % 14.58 C
52 29-07-2018 04:15:00 16.4 C 89 % 14.58 C
53 29-07-2018 04:20:00 16.4 C 89 % 14.58 C
54 29-07-2018 04:25:00 16.3 C 88 % 14.31 C
55 29-07-2018 04:30:00 16.3 C 89 % 14.48 C
56 29-07-2018 04:35:00 16.4 C 89 % 14.58 C
57 29-07-2018 04:40:00 16.4 C 89 % 14.58 C
58 29-07-2018 04:45:00 16.4 C 89 % 14.58 C
59 29-07-2018 04:50:00 16.4 C 89 % 14.58 C
60 29-07-2018 04:55:00 16.4 C 89 % 14.58 C
61 29-07-2018 05:00:00 16.5 C 89 % 14.68 C
62 29-07-2018 05:05:00 16.6 C 89 % 14.78 C
63 29-07-2018 05:10:00 16.6 C 89 % 14.78 C
64 29-07-2018 05:15:00 16.6 C 89 % 14.78 C
65 29-07-2018 05:20:00 16.7 C 90 % 15.05 C
66 29-07-2018 05:25:00 16.7 C 89 % 14.88 C
67 29-07-2018 05:30:00 16.7 C 89 % 14.88 C
68 29-07-2018 05:35:00 16.7 C 89 % 14.88 C
69 29-07-2018 05:40:00 16.7 C 90 % 15.05 C
70 29-07-2018 05:45:00 16.7 C 89 % 14.88 C
71 29-07-2018 05:50:00 16.7 C 90 % 15.05 C
72 29-07-2018 05:55:00 16.7 C 90 % 15.05 C
73 29-07-2018 06:00:00 16.7 C 90 % 15.05 C
74 29-07-2018 06:05:00 16.6 C 89 % 14.78 C
75 29-07-2018 06:10:00 16.6 C 90 % 14.95 C
Sensor: Nr:Datum:Temp:Feuchte:Taupunkt:
Aussen-T/F 76 29-07-2018 06:15:00 16.6 C 90 % 14.95 C
77 29-07-2018 06:20:00 16.6 C 90 % 14.95 C
78 29-07-2018 06:25:00 16.6 C 90 % 14.95 C
79 29-07-2018 06:30:00 16.7 C 90 % 15.05 C
80 29-07-2018 06:35:00 16.7 C 90 % 15.05 C
81 29-07-2018 06:40:00 16.8 C 90 % 15.15 C
82 29-07-2018 06:45:00 16.8 C 89 % 14.98 C
83 29-07-2018 06:50:00 16.9 C 89 % 15.08 C
84 29-07-2018 06:55:00 16.9 C 89 % 15.08 C
85 29-07-2018 07:00:00 17 C 90 % 15.35 C
86 29-07-2018 07:05:00 17.1 C 90 % 15.45 C
87 29-07-2018 07:10:00 17.1 C 90 % 15.45 C
88 29-07-2018 07:15:00 17.2 C 90 % 15.55 C
89 29-07-2018 07:20:00 17.2 C 90 % 15.55 C
90 29-07-2018 07:25:00 17.3 C 90 % 15.64 C
91 29-07-2018 07:30:00 17.3 C 90 % 15.64 C
92 29-07-2018 07:35:00 17.4 C 90 % 15.74 C
93 29-07-2018 07:40:00 17.4 C 90 % 15.74 C
94 29-07-2018 07:45:00 17.5 C 90 % 15.84 C
95 29-07-2018 07:50:00 17.6 C 90 % 15.94 C
96 29-07-2018 07:55:00 17.7 C 89 % 15.86 C
97 29-07-2018 08:00:00 17.7 C 89 % 15.86 C
98 29-07-2018 08:05:00 17.8 C 89 % 15.96 C
99 29-07-2018 08:10:00 17.9 C 89 % 16.06 C
100 29-07-2018 08:15:00 18 C 89 % 16.16 C
Sensor: Nr:Datum:Temp:Feuchte:Taupunkt:
Aussen-T/F 101 29-07-2018 08:20:00 18 C 89 % 16.16 C
102 29-07-2018 08:25:00 18 C 88 % 15.98 C
103 29-07-2018 08:30:00 17.9 C 88 % 15.88 C
104 29-07-2018 08:35:00 18 C 88 % 15.98 C
105 29-07-2018 08:40:00 18 C 88 % 15.98 C
106 29-07-2018 08:45:00 18.1 C 88 % 16.08 C
107 29-07-2018 08:50:00 18.3 C 88 % 16.28 C
108 29-07-2018 08:55:00 18.4 C 89 % 16.55 C
109 29-07-2018 09:00:00 18.7 C 88 % 16.67 C
110 29-07-2018 09:05:00 18.9 C 86 % 16.51 C
111 29-07-2018 09:10:00 19.2 C 86 % 16.8 C
112 29-07-2018 09:15:00 19.6 C 85 % 17.01 C
113 29-07-2018 09:20:00 19.8 C 85 % 17.21 C
114 29-07-2018 09:25:00 20.1 C 83 % 17.12 C
115 29-07-2018 09:30:00 20.4 C 82 % 17.22 C
116 29-07-2018 09:35:00 20.7 C 80 % 17.13 C
117 29-07-2018 09:40:00 21 C 81 % 17.61 C
118 29-07-2018 09:45:00 21.3 C 80 % 17.71 C
119 29-07-2018 09:50:00 21.6 C 78 % 17.6 C
120 29-07-2018 09:55:00 21.8 C 76 % 17.38 C
121 29-07-2018 10:00:00 22.1 C 72 % 16.82 C
122 29-07-2018 10:05:00 22.3 C 72 % 17.01 C
123 29-07-2018 10:10:00 22.6 C 67 % 16.16 C
124 29-07-2018 10:15:00 22.9 C 74 % 18.02 C
125 29-07-2018 10:20:00 22.9 C 69 % 16.91 C
Sensor: Nr:Datum:Temp:Feuchte:Taupunkt:
Aussen-T/F 126 29-07-2018 10:25:00 23.1 C 66 % 16.4 C
127 29-07-2018 10:30:00 23.4 C 70 % 17.62 C
128 29-07-2018 10:35:00 23.6 C 64 % 16.39 C
129 29-07-2018 10:40:00 23.8 C 61 % 15.83 C
130 29-07-2018 10:45:00 24.1 C 65 % 17.11 C
131 29-07-2018 10:50:00 24.3 C 63 % 16.81 C
132 29-07-2018 10:55:00 24.4 C 60 % 16.13 C
133 29-07-2018 11:00:00 24.5 C 60 % 16.23 C
134 29-07-2018 11:05:00 24.5 C 59 % 15.96 C
135 29-07-2018 11:10:00 24.6 C 59 % 16.06 C
136 29-07-2018 11:15:00 24.7 C 59 % 16.15 C
137 29-07-2018 11:20:00 24.8 C 61 % 16.77 C
138 29-07-2018 11:25:00 25 C 56 % 15.61 C
139 29-07-2018 11:30:00 25.2 C 57 % 16.08 C
140 29-07-2018 11:35:00 25.4 C 56 % 15.99 C
141 29-07-2018 11:40:00 25.7 C 57 % 16.54 C
142 29-07-2018 11:45:00 25.8 C 55 % 16.07 C
143 29-07-2018 11:50:00 26 C 57 % 16.82 C
144 29-07-2018 11:55:00 26.3 C 54 % 16.25 C
145 29-07-2018 12:00:00 26.5 C 56 % 17.01 C
146 29-07-2018 12:05:00 26.7 C 54 % 16.62 C
147 29-07-2018 12:10:00 26.9 C 52 % 16.21 C
148 29-07-2018 12:15:00 27.1 C 53 % 16.7 C
149 29-07-2018 12:20:00 27.2 C 49 % 15.56 C
150 29-07-2018 12:25:00 27.2 C 50 % 15.87 C
Sensor: Nr:Datum:Temp:Feuchte:Taupunkt:
Aussen-T/F 151 29-07-2018 12:30:00 27.2 C 50 % 15.87 C
152 29-07-2018 12:35:00 27.2 C 49 % 15.56 C
153 29-07-2018 12:40:00 27.3 C 49 % 15.65 C
154 29-07-2018 12:45:00 27.3 C 48 % 15.33 C
155 29-07-2018 12:50:00 27.2 C 47 % 14.91 C
156 29-07-2018 12:55:00 27.2 C 49 % 15.56 C
157 29-07-2018 13:00:00 27.3 C 47 % 15 C
158 29-07-2018 13:05:00 27.4 C 49 % 15.74 C
159 29-07-2018 13:10:00 27.5 C 45 % 14.51 C
160 29-07-2018 13:15:00 27.6 C 46 % 14.94 C
161 29-07-2018 13:20:00 27.6 C 46 % 14.94 C
162 29-07-2018 13:25:00 27.8 C 48 % 15.78 C
163 29-07-2018 13:30:00 27.8 C 46 % 15.12 C
164 29-07-2018 13:35:00 28 C 49 % 16.29 C
165 29-07-2018 13:40:00 28.1 C 47 % 15.73 C
166 29-07-2018 13:45:00 28.1 C 47 % 15.73 C
167 29-07-2018 13:50:00 28.1 C 46 % 15.39 C
168 29-07-2018 13:55:00 28.1 C 47 % 15.73 C
169 29-07-2018 14:00:00 28.3 C 47 % 15.91 C
170 29-07-2018 14:05:00 28.5 C 48 % 16.42 C
171 29-07-2018 14:10:00 28.6 C 46 % 15.85 C
172 29-07-2018 14:15:00 28.6 C 47 % 16.18 C
173 29-07-2018 14:20:00 28.7 C 47 % 16.27 C
174 29-07-2018 14:25:00 28.7 C 47 % 16.27 C
175 29-07-2018 14:30:00 28.6 C 49 % 16.84 C
Sensor: Nr:Datum:Temp:Feuchte:Taupunkt:
Aussen-T/F 176 29-07-2018 14:35:00 28.7 C 47 % 16.27 C
177 29-07-2018 14:40:00 28.7 C 46 % 15.94 C
178 29-07-2018 14:45:00 28.8 C 46 % 16.03 C
179 29-07-2018 14:50:00 28.7 C 45 % 15.59 C
180 29-07-2018 14:55:00 28.8 C 47 % 16.36 C
181 29-07-2018 15:00:00 28.9 C 46 % 16.12 C
182 29-07-2018 15:05:00 29.2 C 44 % 15.69 C
183 29-07-2018 15:10:00 29.4 C 43 % 15.51 C
184 29-07-2018 15:15:00 29.5 C 42 % 15.24 C
185 29-07-2018 15:20:00 29.5 C 44 % 15.96 C
186 29-07-2018 15:25:00 29.6 C 44 % 16.05 C
187 29-07-2018 15:30:00 29.8 C 42 % 15.51 C
188 29-07-2018 15:35:00 30 C 42 % 15.69 C
189 29-07-2018 15:40:00 30.2 C 41 % 15.49 C
190 29-07-2018 15:45:00 30.3 C 41 % 15.58 C
191 29-07-2018 15:50:00 30.4 C 39 % 14.89 C
192 29-07-2018 15:55:00 30.8 C 40 % 15.64 C
193 29-07-2018 16:00:00 30.9 C 38 % 14.93 C
194 29-07-2018 16:05:00 30.8 C 41 % 16.02 C
195 29-07-2018 16:10:00 30.7 C 38 % 14.75 C
196 29-07-2018 16:15:00 30.8 C 39 % 15.24 C
197 29-07-2018 16:20:00 31 C 37 % 14.6 C
198 29-07-2018 16:25:00 31.1 C 38 % 15.1 C
199 29-07-2018 16:30:00 31 C 36 % 14.18 C
200 29-07-2018 16:35:00 31.2 C 37 % 14.78 C
Sensor: Nr:Datum:Temp:Feuchte:Taupunkt:
Aussen-T/F 201 29-07-2018 16:40:00 31.4 C 37 % 14.96 C
202 29-07-2018 16:45:00 31.6 C 36 % 14.71 C
203 29-07-2018 16:50:00 31.6 C 36 % 14.71 C
204 29-07-2018 16:55:00 31.6 C 39 % 15.95 C
205 29-07-2018 17:00:00 31.7 C 36 % 14.79 C
206 29-07-2018 17:05:00 31.8 C 38 % 15.72 C
207 29-07-2018 17:10:00 32.2 C 35 % 14.8 C
208 29-07-2018 17:15:00 32.1 C 34 % 14.26 C
209 29-07-2018 17:20:00 31.4 C 36 % 14.53 C
210 29-07-2018 17:25:00 31.1 C 36 % 14.27 C
211 29-07-2018 17:30:00 30.9 C 39 % 15.33 C
212 29-07-2018 17:35:00 31.1 C 38 % 15.1 C
213 29-07-2018 17:40:00 31.8 C 36 % 14.88 C
214 29-07-2018 17:45:00 32.4 C 35 % 14.97 C
215 29-07-2018 17:50:00 32.6 C 35 % 15.15 C
216 29-07-2018 17:55:00 32.4 C 35 % 14.97 C
217 29-07-2018 18:00:00 32.3 C 36 % 15.32 C
218 29-07-2018 18:05:00 32.3 C 37 % 15.75 C
219 29-07-2018 18:10:00 32.4 C 35 % 14.97 C
220 29-07-2018 18:15:00 32.6 C 35 % 15.15 C
221 29-07-2018 18:20:00 32.7 C 36 % 15.67 C
222 29-07-2018 18:25:00 32.7 C 34 % 14.78 C
223 29-07-2018 18:30:00 32.7 C 35 % 15.23 C
224 29-07-2018 18:35:00 32.8 C 35 % 15.32 C
225 29-07-2018 18:40:00 32.9 C 35 % 15.41 C
Sensor: Nr:Datum:Temp:Feuchte:Taupunkt:
Aussen-T/F 226 29-07-2018 18:45:00 32.8 C 36 % 15.76 C
227 29-07-2018 18:50:00 32.7 C 36 % 15.67 C
228 29-07-2018 18:55:00 32.7 C 35 % 15.23 C
229 29-07-2018 19:00:00 32.6 C 37 % 16.01 C
230 29-07-2018 19:05:00 32.5 C 37 % 15.92 C
231 29-07-2018 19:10:00 32.2 C 37 % 15.66 C
232 29-07-2018 19:15:00 31.8 C 40 % 16.53 C
233 29-07-2018 19:20:00 31.4 C 38 % 15.37 C
234 29-07-2018 19:25:00 31.2 C 39 % 15.6 C
235 29-07-2018 19:30:00 31.1 C 39 % 15.51 C
236 29-07-2018 19:35:00 31 C 40 % 15.82 C
237 29-07-2018 19:40:00 31.1 C 39 % 15.51 C
238 29-07-2018 19:45:00 31.1 C 41 % 16.29 C
239 29-07-2018 19:50:00 31.2 C 42 % 16.76 C
240 29-07-2018 19:55:00 31.3 C 43 % 17.22 C
241 29-07-2018 20:00:00 31.2 C 42 % 16.76 C
242 29-07-2018 20:05:00 31.1 C 46 % 18.11 C
243 29-07-2018 20:10:00 30.8 C 46 % 17.84 C
244 29-07-2018 20:15:00 30.5 C 47 % 17.91 C
245 29-07-2018 20:20:00 30.1 C 49 % 18.21 C
246 29-07-2018 20:25:00 29.7 C 49 % 17.84 C
247 29-07-2018 20:30:00 29.3 C 51 % 18.11 C
248 29-07-2018 20:35:00 28.9 C 51 % 17.74 C
249 29-07-2018 20:40:00 28.5 C 53 % 17.99 C
250 29-07-2018 20:45:00 28.1 C 52 % 17.32 C
Sensor: Nr:Datum:Temp:Feuchte:Taupunkt:
Aussen-T/F 251 29-07-2018 20:50:00 27.7 C 54 % 17.55 C
252 29-07-2018 20:55:00 27.3 C 52 % 16.58 C
253 29-07-2018 21:00:00 26.8 C 53 % 16.42 C
254 29-07-2018 21:05:00 26.4 C 54 % 16.34 C
255 29-07-2018 21:10:00 26.1 C 57 % 16.92 C
256 29-07-2018 21:15:00 25.7 C 57 % 16.54 C
257 29-07-2018 21:20:00 25.4 C 58 % 16.54 C
258 29-07-2018 21:25:00 25.1 C 59 % 16.52 C
259 29-07-2018 21:30:00 24.8 C 60 % 16.51 C
260 29-07-2018 21:35:00 24.4 C 62 % 16.65 C
261 29-07-2018 21:40:00 24.2 C 62 % 16.46 C
262 29-07-2018 21:45:00 23.9 C 63 % 16.43 C
263 29-07-2018 21:50:00 23.7 C 63 % 16.24 C
264 29-07-2018 21:55:00 23.4 C 64 % 16.2 C
265 29-07-2018 22:00:00 23.2 C 65 % 16.26 C
266 29-07-2018 22:05:00 23 C 66 % 16.31 C
267 29-07-2018 22:10:00 22.8 C 68 % 16.59 C
268 29-07-2018 22:15:00 22.7 C 68 % 16.49 C
269 29-07-2018 22:20:00 22.4 C 67 % 15.97 C
270 29-07-2018 22:25:00 22.3 C 68 % 16.11 C
271 29-07-2018 22:30:00 22.2 C 67 % 15.78 C
272 29-07-2018 22:35:00 22 C 67 % 15.59 C
273 29-07-2018 22:40:00 21.8 C 68 % 15.63 C
274 29-07-2018 22:45:00 21.7 C 68 % 15.54 C
275 29-07-2018 22:50:00 21.6 C 68 % 15.44 C
Sensor: Nr:Datum:Temp:Feuchte:Taupunkt:
Aussen-T/F 276 29-07-2018 22:55:00 21.5 C 68 % 15.35 C
277 29-07-2018 23:00:00 21.3 C 69 % 15.38 C
278 29-07-2018 23:05:00 21.2 C 70 % 15.51 C
279 29-07-2018 23:10:00 21.1 C 70 % 15.42 C
280 29-07-2018 23:15:00 21 C 69 % 15.1 C
281 29-07-2018 23:20:00 20.9 C 70 % 15.23 C
282 29-07-2018 23:25:00 20.8 C 71 % 15.35 C
283 29-07-2018 23:30:00 20.7 C 72 % 15.47 C
284 29-07-2018 23:35:00 20.5 C 72 % 15.28 C
285 29-07-2018 23:40:00 20.3 C 73 % 15.3 C
286 29-07-2018 23:45:00 20.1 C 72 % 14.9 C
287 29-07-2018 23:50:00 20 C 73 % 15.01 C
288 29-07-2018 23:55:00 19.8 C 72 % 14.61 C

Legende:
   Min
   Max


Maximal/Minimal-Werte vom 29.07.2018 - 29.07.2018

Sensor Min Max Avg
Temp
(Aussen-T/F)
16.3 °C
29-07-2018  04:25:00
32.9 °C
29-07-2018  18:40:00
23.51 °C
Feuchte
(Aussen-T/F)
34 %
29-07-2018  17:15:00
90 %
29-07-2018  05:20:00
66.05 %
Taupunkt
(Aussen-T/F)
14.18 C
29-07-2018  16:30:00
18.21 C
29-07-2018  20:20:00
15.78 C

Die Daten stammen von einer Davis Vantage Pro 2 Wetter-Station und werden unter Linux mit der Software wview2wettercgi und aufbereitet. Alle Angaben erfolgen ohne Gewähr für ihre Vollständigkeit oder Richtigkeit.
Kontakt: Rainer Krienke krienke@uni-koblenz.de . Meine Webseiten an der Uni Koblenz oder privat.
Version: $Revision: 0.78 $